Bonner Springs, Kansas
Current Conditions -  °F | °C
As of 10:54 AM on Wednesday 22 Oct 2014 (Local Time) from KMKC Reporting Station
Broken Clouds Broken Clouds  
Wind Chill: 61°   Ceiling: 6000
Heat Index: 61°   Visibility: 10mi
Dew Point: 48°   Wind: 5mph
Humidity: 62%   Direction: 130°SE
Pressure: 30.2"   Gusts: NA
Location:  39.06°N, 94.88°W
Report Text: KMKC 221554Z 13004KT 10SM FEW049 BKN060 BKN080 16/09 A3020 RMK AO2 SLP224 T01610089
Loading
Personal Weather Stations






























Interactive Weather Map
Tropical Storm Tracking
New forecast layout! Learn more

10-Day Weather Forecast

Advertisements
Track Severe Weather on mobile